Accueil
METAR-TAF:

METAR-TAF

Aéroports :

Aéroport international de Nouakchott-Oumtounsy

Nouakchott, Mauritanie

latitude: 18-18-36N, longitude: 015-58-11W, altitude: 3 m

Observation

Le bulletin a été fait il y a 1 heure et 47 minutes, à 05:00 UTC
Vent 8 kt de est/nord-est
Température 23°C
Humidité 14%
Pression 1014 hPa
Visibilité: 4800 m
Chasse-sable élevée

METAR: GQNO 240500Z 07008KT 4800 BLSA NSC 23/M06 Q1014 NOSIG

Heure: 06:47 (06:47 UTC)

Prévision

Le bulletin a été fait il y a 1 heure et 47 minutes, à 05:00 UTC
Prévision valable du 24 à 06 UTC au 25 à 12 UTC
Vent 13 kt de est
Visibilité: 6000 m
Temporairement
du 24 à 08 UTC au 24 à 15 UTC
Visibilité: 4000 m
Chasse-sable élevée

TAF: GQNO 240500Z 2406/2512 09013KT 6000 NSC TEMPO 2408/2415 4000 BLSA

Observations et prévisions météorologiques de plus de 4000 aéroports (messages METAR et TAF).

Les stations disponibles sont représentées par des disques jaunes et rouges sur la carte.

Passer la souris dessus pour voir le nom de la station.

Cliquer dessus pour voir les observations et prévisions météorologiques.

Pour changer de carte: cliquez sur les boutons verts avec une croix noire pour zoomer, sur le bouton vert avec un tiret pour effectuer un zoom arrière, ou sur les flèches vertes pour les cartes adjacentes.


METAR-TAF: